Time;durP1;ratioP1;P1;durP2;ratioP2;P2;SDS_P1;SDS_P2;PMS_P1;PMS_P2;Temp;Humidity;BMP_temperature;BMP_pressure;BME280_temperature;BME280_humidity;BME280_pressure;Samples;Min_cycle;Max_cycle;Signal;HPM_P1;HPM_P2
2023/11/11 00:01:34;;;;;;;3.33;1.80;;;9.40;99.30;;;;;;5072989;28;20051;-69
2023/11/11 00:04:20;;;;;;;2.88;1.90;;;9.40;99.30;;;;;;5073300;28;20032;-70
2023/11/11 00:07:06;;;;;;;3.17;1.80;;;9.40;99.30;;;;;;5070220;28;20048;-70
2023/11/11 00:09:53;;;;;;;3.08;1.88;;;9.30;99.30;;;;;;5070183;28;20418;-70
2023/11/11 00:12:39;;;;;;;2.78;1.90;;;9.30;99.30;;;;;;5070583;28;20429;-70
2023/11/11 00:15:25;;;;;;;4.03;2.08;;;9.30;99.40;;;;;;5088211;28;20044;-71
2023/11/11 00:18:11;;;;;;;2.53;1.63;;;9.20;99.40;;;;;;5084282;28;20094;-71
2023/11/11 00:20:59;;;;;;;3.00;2.20;;;9.30;99.40;;;;;;5083625;28;20119;-70
2023/11/11 00:23:45;;;;;;;4.13;2.13;;;9.30;99.50;;;;;;5089569;28;20040;-71
2023/11/11 00:26:31;;;;;;;2.95;1.70;;;9.30;99.50;;;;;;5075294;28;20406;-71
2023/11/11 00:29:17;;;;;;;3.17;2.08;;;9.40;99.50;;;;;;5069863;28;20148;-69
2023/11/11 00:32:06;;;;;;;4.78;1.63;;;9.40;99.40;;;;;;5069762;28;20156;-70
2023/11/11 00:34:53;;;;;;;4.88;1.95;;;9.40;99.50;;;;;;5070131;28;20309;-70
2023/11/11 00:37:39;;;;;;;4.72;2.00;;;9.40;99.50;;;;;;5080832;28;20052;-71
2023/11/11 00:40:25;;;;;;;3.47;2.05;;;9.40;99.50;;;;;;5080046;28;20028;-71
2023/11/11 00:43:11;;;;;;;2.00;1.75;;;9.40;99.50;;;;;;5089477;28;20032;-71
2023/11/11 00:45:58;;;;;;;6.05;2.22;;;9.40;99.40;;;;;;5088280;28;20109;-70
2023/11/11 00:48:43;;;;;;;3.85;2.17;;;9.40;99.40;;;;;;5089223;28;20036;-71
2023/11/11 00:51:29;;;;;;;3.85;2.05;;;9.40;99.40;;;;;;5088677;28;20489;-69
2023/11/11 00:54:15;;;;;;;3.40;2.00;;;9.40;99.40;;;;;;5078105;28;20051;-69
2023/11/11 00:57:01;;;;;;;5.00;2.13;;;9.40;99.40;;;;;;5082602;28;20163;-69
2023/11/11 00:59:48;;;;;;;4.43;2.35;;;9.40;99.40;;;;;;5069136;28;20483;-69
2023/11/11 01:02:34;;;;;;;3.65;2.13;;;9.40;99.60;;;;;;5085926;27;20040;-69
2023/11/11 01:05:20;;;;;;;3.03;1.95;;;9.40;99.40;;;;;;5068063;28;20182;-68
2023/11/11 01:08:06;;;;;;;2.75;2.22;;;9.40;99.30;;;;;;5069941;28;20048;-69
2023/11/11 01:10:52;;;;;;;3.70;2.20;;;9.40;99.30;;;;;;5088336;28;20052;-68
2023/11/11 01:13:38;;;;;;;5.43;2.80;;;9.40;99.40;;;;;;5082885;28;20125;-68
2023/11/11 01:16:24;;;;;;;4.47;2.00;;;9.40;99.30;;;;;;5081727;28;20043;-68
2023/11/11 01:19:10;;;;;;;2.72;2.00;;;9.40;99.30;;;;;;5088292;28;20036;-68
2023/11/11 01:21:56;;;;;;;4.03;2.13;;;9.40;99.20;;;;;;5070006;28;20051;-68
2023/11/11 01:24:43;;;;;;;5.05;1.88;;;9.40;99.20;;;;;;5068999;28;20502;-68
2023/11/11 01:27:31;;;;;;;3.47;2.30;;;9.30;99.20;;;;;;5068872;28;20532;-68
2023/11/11 01:30:19;;;;;;;3.60;1.83;;;9.30;99.20;;;;;;5067988;28;20462;-68
2023/11/11 01:33:06;;;;;;;4.07;2.20;;;9.20;99.20;;;;;;5088746;28;20848;-68
2023/11/11 01:35:52;;;;;;;2.72;2.17;;;9.20;99.20;;;;;;5069042;28;20044;-68
2023/11/11 01:38:38;;;;;;;4.00;2.90;;;9.10;99.20;;;;;;5070360;28;20041;-68
2023/11/11 01:41:24;;;;;;;5.97;2.33;;;9.10;99.20;;;;;;5069046;28;20131;-69
2023/11/11 01:44:10;;;;;;;4.22;2.25;;;9.00;99.20;;;;;;5069027;28;20068;-69
2023/11/11 01:46:56;;;;;;;4.20;2.25;;;9.00;99.20;;;;;;5068580;28;20571;-69
2023/11/11 01:49:43;;;;;;;4.10;2.20;;;9.00;99.20;;;;;;5069654;28;20555;-69
2023/11/11 01:52:29;;;;;;;5.03;2.50;;;8.90;99.20;;;;;;5069494;28;20506;-69
2023/11/11 01:55:15;;;;;;;4.28;2.70;;;8.80;99.20;;;;;;5088690;28;20052;-68
2023/11/11 01:58:02;;;;;;;5.35;2.63;;;8.80;99.20;;;;;;5088004;28;20071;-70
2023/11/11 02:00:51;;;;;;;4.00;2.13;;;8.80;99.20;;;;;;5089107;28;20504;-73
2023/11/11 02:03:38;;;;;;;3.90;2.55;;;8.70;99.20;;;;;;5070967;28;20043;-72
2023/11/11 02:06:26;;;;;;;4.82;2.80;;;8.70;99.20;;;;;;5078384;28;20459;-73
2023/11/11 02:09:14;;;;;;;6.30;2.28;;;8.70;99.20;;;;;;5085589;28;20386;-74
2023/11/11 02:12:00;;;;;;;3.78;2.63;;;8.60;99.20;;;;;;5087530;28;20119;-73
2023/11/11 02:14:46;;;;;;;3.70;2.22;;;8.60;99.20;;;;;;5088289;28;20126;-73
2023/11/11 02:17:32;;;;;;;5.80;2.65;;;8.60;99.30;;;;;;5081244;28;20036;-73
2023/11/11 02:20:18;;;;;;;4.75;2.58;;;8.50;99.30;;;;;;5072990;28;20858;-72
2023/11/11 02:23:04;;;;;;;7.40;2.30;;;8.50;99.30;;;;;;5083230;28;20491;-73
2023/11/11 02:25:50;;;;;;;5.05;2.60;;;8.40;99.30;;;;;;5071962;28;20505;-73
2023/11/11 02:28:36;;;;;;;5.53;3.25;;;8.40;99.30;;;;;;5072257;28;20258;-72
2023/11/11 02:31:22;;;;;;;5.68;2.85;;;8.40;99.40;;;;;;5072236;28;20056;-72
2023/11/11 02:34:08;;;;;;;4.50;2.28;;;8.30;99.40;;;;;;5073597;28;20472;-73
2023/11/11 02:36:55;;;;;;;3.72;2.25;;;8.30;99.50;;;;;;5090724;28;20068;-73
2023/11/11 02:39:41;;;;;;;4.93;3.22;;;8.20;99.50;;;;;;5085903;28;20458;-72
2023/11/11 02:42:27;;;;;;;4.15;2.53;;;8.20;99.50;;;;;;5086555;28;20469;-73
2023/11/11 02:45:13;;;;;;;3.92;2.38;;;8.20;99.50;;;;;;5084066;28;20410;-72
2023/11/11 02:48:03;;;;;;;3.88;2.10;;;8.10;99.60;;;;;;5071618;28;20438;-72
2023/11/11 02:50:49;;;;;;;3.72;2.13;;;8.10;99.60;;;;;;5104052;28;20095;-73
2023/11/11 02:53:35;;;;;;;4.20;2.55;;;8.10;99.70;;;;;;5084642;28;20037;-73
2023/11/11 02:56:20;;;;;;;5.38;2.60;;;8.10;99.70;;;;;;5082704;28;20412;-72
2023/11/11 02:59:06;;;;;;;6.10;2.55;;;8.10;99.70;;;;;;5075625;28;20485;-73
2023/11/11 03:01:53;;;;;;;3.05;2.33;;;8.00;99.70;;;;;;5072049;28;20418;-72
2023/11/11 03:04:39;;;;;;;3.78;2.22;;;8.00;99.70;;;;;;5075298;28;20141;-69
2023/11/11 03:07:25;;;;;;;4.10;2.45;;;8.00;99.80;;;;;;5070803;28;20048;-72
2023/11/11 03:10:12;;;;;;;4.45;2.30;;;7.90;99.80;;;;;;5071100;28;20045;-72
2023/11/11 03:12:58;;;;;;;3.97;2.53;;;7.90;99.90;;;;;;5071776;28;20041;-71
2023/11/11 03:15:44;;;;;;;4.32;2.28;;;7.90;99.90;;;;;;5071788;28;20090;-71
2023/11/11 03:18:30;;;;;;;4.10;2.20;;;7.90;99.90;;;;;;5071892;28;20123;-71
2023/11/11 03:21:20;;;;;;;5.22;2.50;;;7.90;99.90;;;;;;5075209;28;20118;-70
2023/11/11 03:24:07;;;;;;;4.45;2.20;;;7.80;99.90;;;;;;5096126;28;20044;-69
2023/11/11 03:26:53;;;;;;;4.80;2.30;;;7.80;99.90;;;;;;5071127;28;20410;-72
2023/11/11 03:29:39;;;;;;;3.40;2.47;;;7.80;99.90;;;;;;5069963;28;20419;-71
2023/11/11 03:32:25;;;;;;;4.75;3.03;;;7.80;99.90;;;;;;5072361;28;20497;-71
2023/11/11 03:35:11;;;;;;;5.60;3.47;;;7.70;99.90;;;;;;5071095;28;20040;-72
2023/11/11 03:37:57;;;;;;;5.30;3.70;;;7.60;99.90;;;;;;5089359;28;20847;-71
2023/11/11 03:40:43;;;;;;;6.03;3.45;;;7.60;99.90;;;;;;5085139;28;20069;-71
2023/11/11 03:43:30;;;;;;;5.22;3.25;;;7.60;99.90;;;;;;5074661;28;20394;-72
2023/11/11 03:46:17;;;;;;;8.52;3.67;;;7.60;99.90;;;;;;5080789;28;20446;-72
2023/11/11 03:49:03;;;;;;;6.57;3.72;;;7.60;99.90;;;;;;5091558;28;20404;-72
2023/11/11 03:51:48;;;;;;;6.55;3.72;;;7.50;99.90;;;;;;5090752;28;20497;-71
2023/11/11 03:54:35;;;;;;;4.90;3.17;;;7.50;99.90;;;;;;5083038;28;20068;-72
2023/11/11 03:57:20;;;;;;;4.45;3.55;;;7.40;99.90;;;;;;5071776;28;20474;-73
2023/11/11 04:00:11;;;;;;;6.30;3.30;;;7.40;99.90;;;;;;5081991;28;20489;-64
2023/11/11 04:02:57;;;;;;;5.35;3.28;;;7.30;99.90;;;;;;5089774;28;20063;-63
2023/11/11 04:05:42;;;;;;;4.53;2.88;;;7.30;99.90;;;;;;5089268;28;20394;-64
2023/11/11 04:08:29;;;;;;;5.90;3.13;;;7.30;99.90;;;;;;5090024;28;20185;-64
2023/11/11 04:11:17;;;;;;;6.15;3.47;;;7.30;99.90;;;;;;5079027;28;20052;-64
2023/11/11 04:14:03;;;;;;;6.82;3.85;;;7.30;99.90;;;;;;5069367;28;20538;-64
2023/11/11 04:16:49;;;;;;;5.00;3.08;;;7.30;99.90;;;;;;5079549;28;20379;-64
2023/11/11 04:19:38;;;;;;;5.72;3.45;;;7.30;99.90;;;;;;5070124;28;20044;-64
2023/11/11 04:22:23;;;;;;;5.57;3.15;;;7.30;99.90;;;;;;5069741;28;20480;-64
2023/11/11 04:25:11;;;;;;;5.38;2.75;;;7.40;99.90;;;;;;5078159;28;20520;-64
2023/11/11 04:27:56;;;;;;;4.78;2.97;;;7.40;99.90;;;;;;5088427;28;20074;-63
2023/11/11 04:30:42;;;;;;;3.50;2.53;;;7.40;99.90;;;;;;5070392;28;20051;-63
2023/11/11 04:33:28;;;;;;;6.20;2.95;;;7.40;99.90;;;;;;5073984;28;20051;-64
2023/11/11 04:36:14;;;;;;;5.88;3.15;;;7.40;99.90;;;;;;5073316;28;20120;-64
2023/11/11 04:39:00;;;;;;;4.15;2.78;;;7.40;99.90;;;;;;5070279;28;20100;-64
2023/11/11 04:41:47;;;;;;;5.38;3.40;;;7.50;99.90;;;;;;5070213;28;20051;-64
2023/11/11 04:44:33;;;;;;;4.85;3.15;;;7.50;99.90;;;;;;5068921;28;20044;-64
2023/11/11 04:47:20;;;;;;;4.32;3.13;;;7.50;99.90;;;;;;5069854;28;20040;-64
2023/11/11 04:50:07;;;;;;;5.90;3.58;;;7.50;99.90;;;;;;5073940;28;20052;-64
2023/11/11 04:52:53;;;;;;;5.90;3.53;;;7.60;99.90;;;;;;5081725;28;20379;-64
2023/11/11 04:55:39;;;;;;;6.25;3.70;;;7.60;99.90;;;;;;5088813;28;20044;-64
2023/11/11 04:58:25;;;;;;;6.13;3.90;;;7.60;99.90;;;;;;5069324;28;20036;-64
2023/11/11 05:01:11;;;;;;;5.13;3.60;;;7.60;99.90;;;;;;5068607;28;20131;-63
2023/11/11 05:03:58;;;;;;;5.47;3.53;;;7.60;99.90;;;;;;5078201;28;20044;-63
2023/11/11 05:06:45;;;;;;;5.40;3.70;;;7.70;99.90;;;;;;5083447;28;20387;-63
2023/11/11 05:09:31;;;;;;;6.03;3.15;;;7.70;99.90;;;;;;5069630;28;20398;-63
2023/11/11 05:12:17;;;;;;;5.43;2.88;;;7.70;99.90;;;;;;5068573;28;20063;-63
2023/11/11 05:15:13;;;;;;;5.15;3.22;;;7.70;99.90;;;;;;5070079;28;20298;-62
2023/11/11 05:17:59;;;;;;;6.28;3.13;;;7.70;99.90;;;;;;5072453;28;20530;-62
2023/11/11 05:20:45;;;;;;;5.43;3.00;;;7.80;99.90;;;;;;5089043;28;20464;-63
2023/11/11 05:23:31;;;;;;;6.20;3.33;;;7.80;99.90;;;;;;5084107;28;20402;-63
2023/11/11 05:26:17;;;;;;;6.25;3.08;;;7.80;99.90;;;;;;5073274;28;20045;-63
2023/11/11 05:29:03;;;;;;;6.20;3.97;;;7.80;99.90;;;;;;5085828;28;20476;-63
2023/11/11 05:31:49;;;;;;;5.15;3.08;;;7.80;99.90;;;;;;5088903;28;20291;-63
2023/11/11 05:34:36;;;;;;;7.15;3.88;;;7.80;99.90;;;;;;5094592;28;20513;-63
2023/11/11 05:37:22;;;;;;;6.97;3.13;;;7.80;99.90;;;;;;5086991;28;20079;-62
2023/11/11 05:40:16;;;;;;;5.43;3.13;;;7.80;99.90;;;;;;5069234;28;20624;-63
2023/11/11 05:43:06;;;;;;;8.32;4.03;;;7.80;99.90;;;;;;5079783;28;20094;-63
2023/11/11 05:45:52;;;;;;;7.10;3.60;;;7.80;99.90;;;;;;5087158;28;20456;-63
2023/11/11 05:48:44;;;;;;;6.30;3.60;;;7.80;99.90;;;;;;5084767;28;20834;-63
2023/11/11 05:51:30;;;;;;;6.22;3.30;;;7.80;99.90;;;;;;5087588;28;20485;-64
2023/11/11 05:54:16;;;;;;;5.32;3.25;;;7.70;99.90;;;;;;5078941;28;20508;-64
2023/11/11 05:57:03;;;;;;;6.00;3.45;;;7.80;99.90;;;;;;5072286;28;20482;-64
2023/11/11 05:59:49;;;;;;;4.53;2.83;;;7.80;99.90;;;;;;5077155;28;20493;-64
2023/11/11 06:02:34;;;;;;;4.60;2.97;;;7.80;99.90;;;;;;5073637;28;20040;-63
2023/11/11 06:05:21;;;;;;;5.90;3.45;;;7.80;99.90;;;;;;5071913;28;20075;-63
2023/11/11 06:08:10;;;;;;;6.75;3.83;;;7.80;99.90;;;;;;5077034;28;20044;-59
2023/11/11 06:10:56;;;;;;;5.50;3.35;;;7.80;99.90;;;;;;5088336;28;20052;-61
2023/11/11 06:13:42;;;;;;;8.07;3.03;;;7.80;99.90;;;;;;5073105;28;20040;-64
2023/11/11 06:16:28;;;;;;;4.72;3.00;;;7.80;99.90;;;;;;5090084;28;20400;-63
2023/11/11 06:19:16;;;;;;;6.28;2.95;;;7.80;99.90;;;;;;5089965;28;20401;-68
2023/11/11 06:22:04;;;;;;;6.63;2.35;;;7.80;99.90;;;;;;5083514;28;20485;-68
2023/11/11 06:24:50;;;;;;;5.78;3.30;;;7.80;99.90;;;;;;5075072;28;20131;-68
2023/11/11 06:27:36;;;;;;;6.07;2.83;;;7.80;99.90;;;;;;5075887;28;20490;-68
2023/11/11 06:30:23;;;;;;;4.90;3.28;;;7.80;99.90;;;;;;5072303;28;20567;-68
2023/11/11 06:33:09;;;;;;;7.75;3.47;;;7.90;99.90;;;;;;5072416;28;20549;-68
2023/11/11 06:35:58;;;;;;;4.55;2.97;;;7.80;99.90;;;;;;5072939;28;20041;-68
2023/11/11 06:38:45;;;;;;;5.22;3.30;;;7.90;99.90;;;;;;5075035;28;20040;-67
2023/11/11 06:41:31;;;;;;;4.13;2.72;;;7.90;99.90;;;;;;5072893;28;20037;-68
2023/11/11 06:44:16;;;;;;;4.20;2.88;;;7.80;99.90;;;;;;5079975;28;20062;-68
2023/11/11 06:47:02;;;;;;;6.05;3.47;;;7.80;99.90;;;;;;5089791;28;20040;-68
2023/11/11 06:49:48;;;;;;;3.65;2.35;;;7.80;99.90;;;;;;5072427;28;20127;-68
2023/11/11 06:52:37;;;;;;;4.95;3.13;;;7.80;99.90;;;;;;5072255;28;20409;-68
2023/11/11 06:55:23;;;;;;;6.15;2.70;;;7.80;99.90;;;;;;5071598;28;20048;-69
2023/11/11 06:58:09;;;;;;;4.05;2.63;;;7.80;99.90;;;;;;5075874;28;20036;-68
2023/11/11 07:00:57;;;;;;;4.53;2.90;;;7.70;99.90;;;;;;5075216;28;20129;-68
2023/11/11 07:03:45;;;;;;;6.78;3.28;;;7.70;99.90;;;;;;5080898;28;20041;-68
2023/11/11 07:06:31;;;;;;;7.47;3.03;;;7.70;99.90;;;;;;5074402;28;20044;-68
2023/11/11 07:09:20;;;;;;;5.03;3.05;;;7.70;99.90;;;;;;5073046;28;20066;-68
2023/11/11 07:12:07;;;;;;;4.95;3.13;;;7.70;99.90;;;;;;5072523;28;20513;-67
2023/11/11 07:14:53;;;;;;;5.90;3.65;;;7.60;99.90;;;;;;5072802;28;20036;-65
2023/11/11 07:17:42;;;;;;;6.28;3.30;;;7.60;99.90;;;;;;5081162;28;20047;-67
2023/11/11 07:20:28;;;;;;;5.80;3.35;;;7.60;99.90;;;;;;5083302;28;20102;-67
2023/11/11 07:23:15;;;;;;;5.10;3.45;;;7.60;99.90;;;;;;5071381;28;20044;-67
2023/11/11 07:26:01;;;;;;;5.30;3.20;;;7.70;99.90;;;;;;5086889;28;20043;-67
2023/11/11 07:28:48;;;;;;;4.75;3.17;;;7.70;99.90;;;;;;5088870;28;20032;-67
2023/11/11 07:31:34;;;;;;;8.05;4.13;;;7.80;99.90;;;;;;5073218;28;20110;-67
2023/11/11 07:34:21;;;;;;;6.28;3.33;;;7.80;99.90;;;;;;5075137;28;20045;-68
2023/11/11 07:37:07;;;;;;;9.20;3.70;;;7.90;99.90;;;;;;5083835;28;20508;-67
2023/11/11 07:39:52;;;;;;;5.32;2.75;;;7.90;99.90;;;;;;5083923;28;20118;-67
2023/11/11 07:42:38;;;;;;;7.20;2.80;;;8.00;99.90;;;;;;5071004;28;20386;-67
2023/11/11 07:45:25;;;;;;;6.40;2.92;;;8.10;99.90;;;;;;5087711;28;20387;-67
2023/11/11 07:48:11;;;;;;;5.88;2.97;;;8.10;99.90;;;;;;5082820;28;20047;-68
2023/11/11 07:50:57;;;;;;;6.00;2.72;;;8.20;99.90;;;;;;5075672;28;20485;-68
2023/11/11 07:53:43;;;;;;;5.70;2.85;;;8.20;99.90;;;;;;5071533;28;20032;-68
2023/11/11 07:56:36;;;;;;;4.35;2.78;;;8.20;99.90;;;;;;5089628;28;20055;-67
2023/11/11 07:59:22;;;;;;;4.15;2.58;;;8.30;99.90;;;;;;5089584;28;20043;-67
2023/11/11 08:02:08;;;;;;;3.55;2.47;;;8.40;99.90;;;;;;5073518;28;20072;-67
2023/11/11 08:04:54;;;;;;;6.00;2.85;;;8.50;99.90;;;;;;5079958;28;20166;-67
2023/11/11 08:07:40;;;;;;;3.53;2.72;;;8.50;99.90;;;;;;5069697;28;20136;-67
2023/11/11 08:10:27;;;;;;;8.38;3.53;;;8.60;99.90;;;;;;5083811;28;20056;-67
2023/11/11 08:13:13;;;;;;;5.05;3.33;;;8.60;99.90;;;;;;5089542;28;20035;-67
2023/11/11 08:15:59;;;;;;;7.00;3.60;;;8.70;99.90;;;;;;5085568;28;20044;-69
2023/11/11 08:18:45;;;;;;;5.07;3.65;;;8.80;99.90;;;;;;5071197;28;20064;-69
2023/11/11 08:21:32;;;;;;;7.88;3.13;;;8.80;99.90;;;;;;5070133;28;20059;-69
2023/11/11 08:24:18;;;;;;;7.55;3.80;;;8.90;99.90;;;;;;5070724;28;20038;-69
2023/11/11 08:27:04;;;;;;;8.32;3.60;;;9.00;99.90;;;;;;5074878;28;20162;-69
2023/11/11 08:29:50;;;;;;;6.90;3.90;;;9.00;99.90;;;;;;5056103;28;20424;-69
2023/11/11 08:32:38;;;;;;;4.70;3.58;;;9.10;99.90;;;;;;5070054;28;20059;-69
2023/11/11 08:35:24;;;;;;;6.28;3.30;;;9.10;99.90;;;;;;5069258;28;20083;-69
2023/11/11 08:38:10;;;;;;;6.65;3.25;;;9.20;99.90;;;;;;5083784;28;20050;-69
2023/11/11 08:40:57;;;;;;;5.25;3.38;;;9.30;99.90;;;;;;5089306;28;20032;-69
2023/11/11 08:43:46;;;;;;;6.13;3.80;;;9.30;99.90;;;;;;5088860;28;20036;-69
2023/11/11 08:46:32;;;;;;;5.22;2.90;;;9.40;99.90;;;;;;5089906;28;20117;-69
2023/11/11 08:49:18;;;;;;;7.30;3.72;;;9.40;99.90;;;;;;5073383;28;20064;-68
2023/11/11 08:52:04;;;;;;;5.85;3.35;;;9.50;99.90;;;;;;5078548;28;20087;-68
2023/11/11 08:54:50;;;;;;;6.95;3.38;;;9.50;99.90;;;;;;5076876;28;20036;-68
2023/11/11 08:57:37;;;;;;;7.40;3.60;;;9.60;99.90;;;;;;5068978;28;20064;-68
2023/11/11 09:00:23;;;;;;;6.50;3.80;;;9.60;99.80;;;;;;5083762;28;20036;-68
2023/11/11 09:03:09;;;;;;;5.35;3.03;;;9.70;99.80;;;;;;5081443;28;20039;-68
2023/11/11 09:05:55;;;;;;;4.88;3.05;;;9.70;99.80;;;;;;5068283;28;20044;-67
2023/11/11 09:08:43;;;;;;;5.78;3.38;;;9.80;99.70;;;;;;5077564;28;20039;-68
2023/11/11 09:11:28;;;;;;;5.72;3.40;;;9.90;99.70;;;;;;5085588;28;20416;-68
2023/11/11 09:14:14;;;;;;;5.90;3.90;;;9.90;99.70;;;;;;5073629;28;20084;-68
2023/11/11 09:17:02;;;;;;;4.53;3.47;;;10.00;99.80;;;;;;5084367;28;20537;-68
2023/11/11 09:19:48;;;;;;;6.65;3.40;;;10.10;99.80;;;;;;5078873;28;20050;-68
2023/11/11 09:22:35;;;;;;;7.93;3.55;;;10.10;99.70;;;;;;5079870;28;20413;-68
2023/11/11 09:25:21;;;;;;;6.07;3.03;;;10.20;99.60;;;;;;5070547;28;20032;-68
2023/11/11 09:28:07;;;;;;;4.60;2.80;;;10.20;99.60;;;;;;5073771;28;20097;-68
2023/11/11 09:30:54;;;;;;;5.03;2.75;;;10.40;99.60;;;;;;5069237;28;20394;-69
2023/11/11 09:33:41;;;;;;;4.15;2.60;;;10.40;99.50;;;;;;5068456;28;20494;-69
2023/11/11 09:36:28;;;;;;;4.22;3.05;;;10.40;99.40;;;;;;5076465;28;20047;-69
2023/11/11 09:39:14;;;;;;;4.07;2.60;;;10.50;99.30;;;;;;5074705;28;20036;-69
2023/11/11 09:42:00;;;;;;;4.00;2.53;;;10.50;99.30;;;;;;5068744;28;20052;-69
2023/11/11 09:44:46;;;;;;;4.43;2.67;;;10.50;99.20;;;;;;5085644;28;20067;-69
2023/11/11 09:47:33;;;;;;;5.35;3.20;;;10.50;99.20;;;;;;5088618;28;20044;-69
2023/11/11 09:50:24;;;;;;;3.75;2.67;;;10.60;99.00;;;;;;5082741;28;20063;-69
2023/11/11 09:53:12;;;;;;;5.65;2.85;;;10.60;98.90;;;;;;5068647;28;20040;-68
2023/11/11 09:55:58;;;;;;;6.63;2.92;;;10.70;98.90;;;;;;5068376;28;20417;-69
2023/11/11 09:58:45;;;;;;;5.75;2.45;;;10.70;98.90;;;;;;5071452;28;20541;-66
2023/11/11 10:01:33;;;;;;;4.47;2.75;;;10.70;98.80;;;;;;5068124;28;20051;-70
2023/11/11 10:04:19;;;;;;;10.48;2.78;;;10.80;98.90;;;;;;5068704;28;20527;-70
2023/11/11 10:07:05;;;;;;;6.57;3.10;;;10.80;98.80;;;;;;5059188;28;20059;-70
2023/11/11 10:09:52;;;;;;;6.97;3.30;;;10.90;98.70;;;;;;5084483;28;20040;-70
2023/11/11 10:12:39;;;;;;;7.55;3.10;;;10.90;98.70;;;;;;5078934;28;20049;-70
2023/11/11 10:15:25;;;;;;;8.88;2.83;;;11.00;98.60;;;;;;5068421;28;20048;-70
2023/11/11 10:18:14;;;;;;;6.70;2.83;;;11.00;98.50;;;;;;5068484;28;20098;-69
2023/11/11 10:21:00;;;;;;;10.82;2.92;;;11.10;98.40;;;;;;5070140;28;20044;-69
2023/11/11 10:23:50;;;;;;;16.55;3.67;;;11.10;98.40;;;;;;5079247;28;20105;-69
2023/11/11 10:26:40;;;;;;;12.57;3.63;;;11.20;98.30;;;;;;5076888;28;20135;-67
2023/11/11 10:29:26;;;;;;;4.22;2.40;;;11.20;98.20;;;;;;5068066;28;20854;-68
2023/11/11 10:32:12;;;;;;;7.05;2.95;;;11.30;98.20;;;;;;5081666;28;20127;-68
2023/11/11 10:34:58;;;;;;;5.28;2.90;;;11.40;98.20;;;;;;5077971;28;20505;-68
2023/11/11 10:37:46;;;;;;;8.60;3.03;;;11.40;98.00;;;;;;5069618;28;20553;-68
2023/11/11 10:40:34;;;;;;;10.52;2.70;;;11.40;98.00;;;;;;5073567;28;20051;-68
2023/11/11 10:43:20;;;;;;;9.52;2.92;;;11.40;98.00;;;;;;5072174;28;20041;-68
2023/11/11 10:46:06;;;;;;;13.77;3.22;;;11.50;97.90;;;;;;5056035;28;20052;-68
2023/11/11 10:48:52;;;;;;;4.55;2.85;;;11.60;97.90;;;;;;5071444;28;20551;-68
2023/11/11 10:51:41;;;;;;;13.98;3.95;;;11.60;97.80;;;;;;5070869;28;20459;-68
2023/11/11 10:54:29;;;;;;;8.73;3.83;;;11.60;97.80;;;;;;5078242;28;20048;-68
2023/11/11 10:57:16;;;;;;;5.03;2.97;;;11.70;97.80;;;;;;5071151;28;20040;-68
2023/11/11 11:00:09;;;;;;;6.70;3.00;;;11.70;97.70;;;;;;5070686;28;20119;-68
2023/11/11 11:02:56;;;;;;;7.28;3.00;;;11.80;97.70;;;;;;5070888;28;20072;-68
2023/11/11 11:06:19;;;;;;;5.68;2.88;;;11.80;97.60;;;;;;5072363;28;20080;-68
2023/11/11 11:09:15;;;;;;;5.72;3.20;;;11.80;97.60;;;;;;5072707;28;20134;-68
2023/11/11 11:12:11;;;;;;;6.63;3.83;;;11.90;97.60;;;;;;5070575;28;20464;-69
2023/11/11 11:15:00;;;;;;;5.80;2.95;;;11.90;97.60;;;;;;5065159;28;20512;-68
2023/11/11 11:17:51;;;;;;;8.50;3.80;;;12.00;97.50;;;;;;5083125;28;20044;-68
2023/11/11 11:20:40;;;;;;;4.45;3.10;;;12.00;97.40;;;;;;5084582;28;20097;-68
2023/11/11 11:23:35;;;;;;;5.25;3.08;;;12.00;97.30;;;;;;5076431;28;20414;-68
2023/11/11 11:26:29;;;;;;;6.88;3.50;;;12.00;97.50;;;;;;5074875;28;20064;-68
2023/11/11 11:29:20;;;;;;;9.23;3.45;;;12.10;97.30;;;;;;5081712;28;20135;-68
2023/11/11 11:32:12;;;;;;;7.18;2.92;;;12.10;97.20;;;;;;5070722;28;20063;-69
2023/11/11 11:35:37;;;;;;;6.80;3.00;;;12.10;97.20;;;;;;5073778;28;20031;-69
2023/11/11 11:38:31;;;;;;;4.47;2.67;;;12.10;97.10;;;;;;5071143;28;20043;-69
2023/11/11 11:41:23;;;;;;;8.90;2.97;;;12.20;97.00;;;;;;5076111;28;20040;-68
2023/11/11 11:44:10;;;;;;;6.97;2.92;;;12.10;97.00;;;;;;5090841;28;20046;-69
2023/11/11 11:46:56;;;;;;;5.13;2.70;;;12.20;97.00;;;;;;5074156;28;20048;-68
2023/11/11 11:49:42;;;;;;;4.30;2.45;;;12.20;96.90;;;;;;5081486;28;20039;-69
2023/11/11 11:52:28;;;;;;;4.82;2.63;;;12.20;96.80;;;;;;5086343;28;20127;-69
2023/11/11 11:55:14;;;;;;;4.18;2.65;;;12.20;96.80;;;;;;5081647;28;20133;-70
2023/11/11 11:58:00;;;;;;;4.18;2.97;;;12.20;96.80;;;;;;5070094;28;20631;-69
2023/11/11 12:00:46;;;;;;;3.55;2.50;;;12.30;96.90;;;;;;5069402;28;20563;-68
2023/11/11 12:03:32;;;;;;;4.82;2.60;;;12.30;96.80;;;;;;5070624;28;20040;-68
2023/11/11 12:06:19;;;;;;;3.65;2.72;;;12.30;96.70;;;;;;5069722;28;20059;-69
2023/11/11 12:09:09;;;;;;;5.95;2.63;;;12.30;96.70;;;;;;5073476;28;20182;-69
2023/11/11 12:12:07;;;;;;;5.70;2.50;;;12.40;96.70;;;;;;5075405;28;20048;-68
2023/11/11 12:14:53;;;;;;;5.38;3.13;;;12.40;96.70;;;;;;5089579;28;20042;-68
2023/11/11 12:17:40;;;;;;;5.15;2.70;;;12.40;96.60;;;;;;5090038;28;20667;-68
2023/11/11 12:20:41;;;;;;;3.78;2.13;;;12.40;96.70;;;;;;5084818;28;20386;-68
2023/11/11 12:23:28;;;;;;;4.50;2.42;;;12.40;96.60;;;;;;5072992;28;20042;-69
2023/11/11 12:26:15;;;;;;;3.75;2.03;;;12.40;96.60;;;;;;5074298;28;20037;-69
2023/11/11 12:29:01;;;;;;;6.18;2.50;;;12.40;96.60;;;;;;5070530;28;20473;-68
2023/11/11 12:31:49;;;;;;;4.32;2.58;;;12.40;96.70;;;;;;5069990;28;20052;-68
2023/11/11 12:34:35;;;;;;;6.50;3.67;;;12.40;96.70;;;;;;5068595;28;20051;-69
2023/11/11 12:37:21;;;;;;;4.78;2.40;;;12.40;96.70;;;;;;5070185;28;20481;-68
2023/11/11 12:40:08;;;;;;;5.28;2.50;;;12.40;96.70;;;;;;5072822;28;20520;-68
2023/11/11 12:42:53;;;;;;;4.15;2.92;;;12.40;96.70;;;;;;5079038;28;20093;-68
2023/11/11 12:45:49;;;;;;;3.50;2.50;;;12.40;96.80;;;;;;5084732;28;20063;-68
2023/11/11 12:48:35;;;;;;;7.90;2.72;;;12.40;96.80;;;;;;5070256;28;20032;-68
2023/11/11 12:51:29;;;;;;;5.82;2.90;;;12.40;96.90;;;;;;5070653;28;20103;-68
2023/11/11 12:54:16;;;;;;;6.35;3.25;;;12.40;96.90;;;;;;5088530;28;20040;-68
2023/11/11 12:57:03;;;;;;;6.65;3.88;;;12.40;96.90;;;;;;5086774;28;20575;-69
2023/11/11 12:59:56;;;;;;;8.07;3.35;;;12.40;96.90;;;;;;5075450;28;20511;-68
2023/11/11 13:02:42;;;;;;;6.95;3.88;;;12.40;96.90;;;;;;5068928;28;20128;-69
2023/11/11 13:05:28;;;;;;;7.25;4.05;;;12.40;96.90;;;;;;5069060;28;20048;-68
2023/11/11 13:08:18;;;;;;;7.18;3.45;;;12.40;96.90;;;;;;5074080;28;20032;-68
2023/11/11 13:11:05;;;;;;;9.75;3.85;;;12.40;96.90;;;;;;5078173;28;20047;-68
2023/11/11 13:13:51;;;;;;;5.35;3.10;;;12.40;96.90;;;;;;5068721;28;20037;-68
2023/11/11 13:16:37;;;;;;;7.85;3.50;;;12.40;97.00;;;;;;5068816;28;20041;-68
2023/11/11 13:19:26;;;;;;;5.63;3.00;;;12.30;97.00;;;;;;5068514;28;20036;-76
2023/11/11 13:22:12;;;;;;;5.22;2.80;;;12.30;97.10;;;;;;5081276;28;20039;-76
2023/11/11 13:25:00;;;;;;;8.85;3.22;;;12.30;97.10;;;;;;5087415;28;20040;-77
2023/11/11 13:27:46;;;;;;;5.72;3.00;;;12.30;97.00;;;;;;5077813;28;20094;-77
2023/11/11 13:30:32;;;;;;;5.10;3.22;;;12.30;97.10;;;;;;5081044;28;20052;-78
2023/11/11 13:33:18;;;;;;;4.75;2.80;;;12.30;97.10;;;;;;5081376;28;20127;-79
2023/11/11 13:36:09;;;;;;;5.97;3.20;;;12.30;97.10;;;;;;5088223;28;20409;-78
2023/11/11 13:38:56;;;;;;;5.95;2.90;;;12.20;97.10;;;;;;5073503;28;20108;-78
2023/11/11 13:41:42;;;;;;;4.95;2.63;;;12.20;97.10;;;;;;5071371;28;20051;-76
2023/11/11 13:44:28;;;;;;;9.25;3.45;;;12.20;97.10;;;;;;5068924;28;20616;-77
2023/11/11 13:47:14;;;;;;;5.28;3.08;;;12.20;97.20;;;;;;5068816;28;20117;-76
2023/11/11 13:50:01;;;;;;;8.68;3.00;;;12.20;97.20;;;;;;5078232;28;20233;-75
2023/11/11 13:52:47;;;;;;;6.00;3.40;;;12.30;97.20;;;;;;5085274;28;20060;-77
2023/11/11 13:55:34;;;;;;;6.43;3.30;;;12.20;97.20;;;;;;5088415;28;20123;-76
2023/11/11 13:58:20;;;;;;;7.38;3.08;;;12.30;97.20;;;;;;5087278;28;20040;-75
2023/11/11 14:01:07;;;;;;;4.75;3.15;;;12.20;97.20;;;;;;5082835;28;20040;-75
2023/11/11 14:03:53;;;;;;;4.35;2.85;;;12.20;97.10;;;;;;5068578;28;20813;-76
2023/11/11 14:06:39;;;;;;;5.40;3.03;;;12.30;97.40;;;;;;5068177;28;20057;-76
2023/11/11 14:09:25;;;;;;;6.10;3.33;;;12.30;97.20;;;;;;5068013;28;20353;-77
2023/11/11 14:12:11;;;;;;;5.05;3.15;;;12.20;97.20;;;;;;5089563;28;20572;-76
2023/11/11 14:14:58;;;;;;;6.30;3.42;;;12.30;97.20;;;;;;5077244;28;20079;-76
2023/11/11 14:17:45;;;;;;;7.68;3.95;;;12.20;97.20;;;;;;5072007;28;20079;-76
2023/11/11 14:20:31;;;;;;;5.45;3.20;;;12.20;97.40;;;;;;5075379;28;20197;-75
2023/11/11 14:23:18;;;;;;;6.50;3.50;;;12.20;97.20;;;;;;5077850;28;20036;-77
2023/11/11 14:26:06;;;;;;;5.70;3.65;;;12.20;97.20;;;;;;5077935;28;20448;-77
2023/11/11 14:28:54;;;;;;;8.23;3.65;;;12.20;97.20;;;;;;5081541;28;20040;-77
2023/11/11 14:31:40;;;;;;;6.93;3.88;;;12.10;97.30;;;;;;5072347;28;20430;-78
2023/11/11 14:34:26;;;;;;;10.05;4.05;;;12.10;97.30;;;;;;5074725;28;20044;-76
2023/11/11 14:37:12;;;;;;;8.05;4.57;;;12.10;97.30;;;;;;5075551;28;20044;-78